Time;durP1;ratioP1;P1;durP2;ratioP2;P2;SDS_P1;SDS_P2;PMS_P1;PMS_P2;Temp;Humidity;BMP_temperature;BMP_pressure;BME280_temperature;BME280_humidity;BME280_pressure;Samples;Min_cycle;Max_cycle;Signal;HPM_P1;HPM_P2
2021/09/05 00:00:33;;;;;;;28.00;16.07;;;13.20;96.60;;;;;;5012678;28;20057;-70
2021/09/05 00:02:58;;;;;;;28.07;16.73;;;13.20;96.60;;;;;;5012190;28;20129;-69
2021/09/05 00:05:24;;;;;;;23.77;15.50;;;13.20;96.60;;;;;;5013350;28;20376;-69
2021/09/05 00:07:49;;;;;;;27.77;15.33;;;13.20;96.60;;;;;;5012602;28;20438;-69
2021/09/05 00:10:15;;;;;;;23.83;14.27;;;13.20;96.60;;;;;;5013215;28;20034;-69
2021/09/05 00:12:42;;;;;;;25.40;14.60;;;13.20;96.60;;;;;;5012040;28;20054;-70
2021/09/05 00:15:09;;;;;;;20.03;13.63;;;13.20;96.60;;;;;;5011648;28;20181;-70
2021/09/05 00:17:35;;;;;;;24.10;15.13;;;13.20;96.60;;;;;;5013088;28;20507;-70
2021/09/05 00:20:01;;;;;;;30.67;17.10;;;13.10;96.90;;;;;;5013034;28;20136;-70
2021/09/05 00:22:26;;;;;;;27.43;16.33;;;13.10;96.60;;;;;;5012204;28;20404;-70
2021/09/05 00:24:52;;;;;;;24.87;15.43;;;13.00;96.70;;;;;;5013286;28;20056;-70
2021/09/05 00:27:18;;;;;;;23.00;15.73;;;13.00;96.80;;;;;;5012684;28;20100;-70
2021/09/05 00:29:43;;;;;;;21.90;14.43;;;13.00;96.80;;;;;;5011251;28;20048;-70
2021/09/05 00:32:09;;;;;;;37.27;19.13;;;13.00;96.80;;;;;;5011369;28;20135;-69
2021/09/05 00:34:34;;;;;;;29.93;15.93;;;13.00;96.90;;;;;;5011087;28;20077;-70
2021/09/05 00:37:00;;;;;;;30.77;17.33;;;13.00;97.00;;;;;;5011824;28;20145;-70
2021/09/05 00:39:26;;;;;;;30.17;17.00;;;13.00;97.00;;;;;;5012460;28;20530;-70
2021/09/05 00:41:52;;;;;;;24.80;15.27;;;12.90;97.00;;;;;;5012270;28;20046;-70
2021/09/05 00:44:17;;;;;;;28.87;17.77;;;12.90;97.00;;;;;;5011234;28;20049;-70
2021/09/05 00:46:43;;;;;;;30.23;15.50;;;12.90;97.10;;;;;;5012691;28;20042;-70
2021/09/05 00:49:10;;;;;;;26.17;16.03;;;13.00;97.10;;;;;;5011875;28;20053;-69
2021/09/05 00:51:39;;;;;;;27.37;16.17;;;12.90;97.00;;;;;;5013044;28;20453;-70
2021/09/05 00:54:06;;;;;;;26.30;15.83;;;12.90;97.00;;;;;;5012707;28;20069;-70
2021/09/05 00:56:34;;;;;;;24.67;15.13;;;12.90;97.00;;;;;;5011871;28;20049;-70
2021/09/05 00:59:08;;;;;;;29.50;17.20;;;12.90;97.00;;;;;;5011168;28;20042;-70
2021/09/05 01:01:36;;;;;;;25.43;16.23;;;12.80;97.00;;;;;;5011130;28;20053;-69
2021/09/05 01:04:02;;;;;;;25.53;16.23;;;12.80;97.00;;;;;;5011815;28;20095;-70
2021/09/05 01:06:28;;;;;;;27.50;15.73;;;12.80;97.00;;;;;;5012226;28;20046;-70
2021/09/05 01:08:54;;;;;;;26.80;16.97;;;12.80;97.00;;;;;;5011213;28;20056;-70
2021/09/05 01:11:20;;;;;;;26.27;17.70;;;12.80;97.10;;;;;;5010117;28;20053;-70
2021/09/05 01:13:46;;;;;;;32.93;19.30;;;12.70;97.20;;;;;;5012157;28;20041;-69
2021/09/05 01:16:25;;;;;;;31.83;18.63;;;12.80;97.40;;;;;;5012204;28;20046;-70
2021/09/05 01:18:51;;;;;;;22.97;15.27;;;12.80;97.50;;;;;;5010239;28;20092;-70
2021/09/05 01:21:16;;;;;;;31.00;18.17;;;12.80;97.50;;;;;;5011840;28;20356;-69
2021/09/05 01:23:42;;;;;;;29.40;17.73;;;12.80;97.50;;;;;;5011428;28;20105;-70
2021/09/05 01:26:08;;;;;;;30.33;18.37;;;12.80;97.50;;;;;;5011108;28;20593;-70
2021/09/05 01:28:34;;;;;;;29.00;15.73;;;12.80;97.50;;;;;;5013944;28;20071;-70
2021/09/05 01:31:00;;;;;;;29.17;16.97;;;12.80;97.40;;;;;;5014404;28;20054;-69
2021/09/05 01:33:25;;;;;;;24.50;15.87;;;12.80;97.40;;;;;;5014637;28;20475;-69
2021/09/05 01:35:51;;;;;;;30.03;17.17;;;12.80;97.40;;;;;;5014779;28;20410;-69
2021/09/05 01:38:17;;;;;;;28.33;16.90;;;12.80;97.40;;;;;;5013900;28;20054;-69
2021/09/05 01:40:42;;;;;;;24.13;14.80;;;12.80;97.40;;;;;;5014673;28;20065;-69
2021/09/05 01:43:08;;;;;;;30.97;18.00;;;12.80;97.40;;;;;;5015924;28;20046;-69
2021/09/05 01:45:33;;;;;;;29.37;17.37;;;12.80;97.50;;;;;;5013953;28;20160;-69
2021/09/05 01:47:59;;;;;;;32.17;17.73;;;12.70;97.50;;;;;;5015869;28;20042;-69
2021/09/05 01:50:24;;;;;;;29.63;18.17;;;12.70;97.50;;;;;;5015608;28;20038;-69
2021/09/05 01:52:50;;;;;;;34.00;18.13;;;12.70;97.60;;;;;;5014063;28;20043;-69
2021/09/05 01:55:15;;;;;;;26.07;16.10;;;12.70;97.60;;;;;;5015478;28;20124;-69
2021/09/05 01:57:41;;;;;;;26.07;16.20;;;12.70;97.60;;;;;;5015765;28;20475;-69
2021/09/05 02:00:07;;;;;;;31.20;16.93;;;12.70;97.50;;;;;;5013303;28;20144;-70
2021/09/05 02:02:33;;;;;;;32.13;17.83;;;12.60;97.50;;;;;;5014380;28;20045;-69
2021/09/05 02:04:58;;;;;;;26.47;16.30;;;12.60;97.50;;;;;;5014526;28;20045;-69
2021/09/05 02:07:24;;;;;;;26.97;16.27;;;12.60;97.60;;;;;;5013298;28;20084;-69
2021/09/05 02:09:49;;;;;;;20.83;14.53;;;12.60;97.60;;;;;;5014475;28;20168;-69
2021/09/05 02:12:15;;;;;;;25.63;16.17;;;12.60;97.60;;;;;;5015380;28;20552;-69
2021/09/05 02:14:40;;;;;;;26.33;16.20;;;12.70;97.50;;;;;;5014980;28;20504;-69
2021/09/05 02:17:06;;;;;;;26.47;16.37;;;12.60;97.50;;;;;;5014313;28;20045;-69
2021/09/05 02:19:33;;;;;;;25.43;16.37;;;12.60;97.50;;;;;;5014251;28;20409;-69
2021/09/05 02:22:00;;;;;;;30.57;18.20;;;12.60;97.50;;;;;;5014704;28;20050;-69
2021/09/05 02:24:26;;;;;;;31.57;18.67;;;12.60;97.60;;;;;;5013586;28;20050;-69
2021/09/05 02:26:51;;;;;;;27.90;17.90;;;12.60;97.70;;;;;;5013892;28;20041;-69
2021/09/05 02:29:17;;;;;;;26.87;15.93;;;12.60;97.80;;;;;;5013303;28;20076;-69
2021/09/05 02:31:43;;;;;;;30.00;16.70;;;12.60;97.80;;;;;;5015308;28;20046;-69
2021/09/05 02:34:08;;;;;;;27.97;17.17;;;12.60;97.70;;;;;;5013263;28;20522;-69
2021/09/05 02:36:34;;;;;;;30.90;17.50;;;12.60;97.70;;;;;;5013734;28;20042;-69
2021/09/05 02:38:59;;;;;;;37.37;18.43;;;12.60;97.70;;;;;;5014400;28;20042;-69
2021/09/05 02:41:25;;;;;;;26.93;16.57;;;12.60;97.70;;;;;;5012612;28;20038;-69
2021/09/05 02:43:51;;;;;;;24.60;14.97;;;12.60;97.80;;;;;;5015186;28;20050;-69
2021/09/05 02:46:16;;;;;;;28.40;16.60;;;12.60;97.70;;;;;;5014693;28;20519;-69
2021/09/05 02:48:42;;;;;;;27.00;15.87;;;12.50;97.60;;;;;;5012796;28;20435;-69
2021/09/05 02:51:07;;;;;;;33.10;17.73;;;12.50;97.50;;;;;;5014466;28;20054;-69
2021/09/05 02:53:33;;;;;;;30.03;18.13;;;12.40;97.60;;;;;;5013742;28;20045;-70
2021/09/05 02:55:58;;;;;;;34.50;18.93;;;12.40;97.70;;;;;;5014180;28;20052;-69
2021/09/05 02:58:24;;;;;;;30.53;18.67;;;12.40;97.80;;;;;;5013317;28;20046;-69
2021/09/05 03:00:49;;;;;;;24.53;16.10;;;12.30;97.80;;;;;;5014420;28;20085;-69
2021/09/05 03:03:15;;;;;;;36.07;18.50;;;12.40;97.90;;;;;;5012496;28;20042;-69
2021/09/05 03:05:41;;;;;;;29.83;18.70;;;12.30;98.00;;;;;;5014439;28;20479;-69
2021/09/05 03:08:06;;;;;;;30.50;17.80;;;12.30;98.00;;;;;;5014120;28;20034;-69
2021/09/05 03:10:32;;;;;;;32.70;19.33;;;12.30;98.00;;;;;;5013726;28;20067;-69
2021/09/05 03:12:58;;;;;;;31.87;19.07;;;12.40;98.10;;;;;;5014512;28;20053;-69
2021/09/05 03:15:23;;;;;;;28.67;18.17;;;12.40;98.10;;;;;;5014082;28;20520;-69
2021/09/05 03:17:52;;;;;;;27.10;16.97;;;12.40;98.20;;;;;;5012637;28;20053;-69
2021/09/05 03:20:17;;;;;;;27.07;15.30;;;12.40;98.10;;;;;;5012564;28;20076;-69
2021/09/05 03:22:43;;;;;;;35.00;18.23;;;12.40;98.10;;;;;;5013003;28;20051;-69
2021/09/05 03:25:11;;;;;;;57.13;19.33;;;12.30;98.10;;;;;;5013264;28;20045;-69
2021/09/05 03:27:40;;;;;;;52.35;18.95;;;12.30;98.10;;;;;;5014299;28;20347;-68
2021/09/05 03:30:06;;;;;;;28.60;17.67;;;12.30;98.10;;;;;;5014072;28;20048;-69
2021/09/05 03:32:31;;;;;;;34.87;17.77;;;12.30;98.20;;;;;;5013445;28;20049;-68
2021/09/05 03:35:00;;;;;;;31.47;17.10;;;12.30;98.10;;;;;;5013758;28;20057;-69
2021/09/05 03:37:26;;;;;;;40.60;18.90;;;12.30;98.20;;;;;;5013064;28;20108;-68
2021/09/05 03:39:51;;;;;;;58.93;18.63;;;12.30;98.10;;;;;;5013811;28;20429;-69
2021/09/05 03:42:17;;;;;;;41.47;19.20;;;12.20;98.20;;;;;;5012478;28;20049;-69
2021/09/05 03:44:43;;;;;;;31.77;16.30;;;12.20;98.30;;;;;;5011773;28;20053;-69
2021/09/05 03:47:08;;;;;;;55.73;19.57;;;12.30;98.30;;;;;;5013623;28;20049;-69
2021/09/05 03:49:34;;;;;;;32.20;17.77;;;12.20;98.70;;;;;;5013026;28;20105;-69
2021/09/05 03:52:00;;;;;;;42.17;18.83;;;12.20;98.30;;;;;;5011945;28;20045;-69
2021/09/05 03:54:25;;;;;;;34.47;17.97;;;12.20;98.30;;;;;;5013525;28;20057;-69
2021/09/05 03:56:51;;;;;;;26.80;15.57;;;12.10;98.30;;;;;;5013523;28;20046;-69
2021/09/05 03:59:16;;;;;;;30.33;17.30;;;12.10;98.40;;;;;;5012616;28;20475;-69
2021/09/05 04:01:42;;;;;;;32.20;19.10;;;12.00;98.40;;;;;;5013470;28;20042;-69
2021/09/05 04:04:08;;;;;;;31.43;18.60;;;12.00;98.40;;;;;;5013135;28;20133;-69
2021/09/05 04:06:33;;;;;;;22.50;16.07;;;12.00;98.50;;;;;;5012571;28;20037;-69
2021/09/05 04:09:08;;;;;;;30.10;18.03;;;12.00;98.50;;;;;;5013438;28;20068;-69
2021/09/05 04:11:35;;;;;;;56.30;18.77;;;12.00;98.40;;;;;;5012327;28;20144;-69
2021/09/05 04:14:00;;;;;;;32.03;18.77;;;12.00;98.50;;;;;;5012598;28;20069;-69
2021/09/05 04:16:26;;;;;;;24.23;16.30;;;12.00;98.50;;;;;;5012017;28;20539;-69
2021/09/05 04:18:51;;;;;;;27.53;17.27;;;11.90;98.50;;;;;;5013112;28;20073;-69
2021/09/05 04:21:17;;;;;;;30.23;19.43;;;12.00;98.60;;;;;;5010631;28;20562;-69
2021/09/05 04:23:42;;;;;;;27.73;18.47;;;11.90;98.50;;;;;;5013188;28;20042;-69
2021/09/05 04:26:08;;;;;;;31.70;18.90;;;11.90;98.50;;;;;;5012752;28;20244;-69
2021/09/05 04:28:34;;;;;;;29.57;18.30;;;11.90;98.50;;;;;;5012258;28;20056;-69
2021/09/05 04:30:59;;;;;;;28.03;17.37;;;11.90;98.50;;;;;;5011868;28;20137;-69
2021/09/05 04:33:25;;;;;;;29.50;19.70;;;11.90;98.50;;;;;;5011257;28;20053;-69
2021/09/05 04:35:51;;;;;;;43.43;22.90;;;11.80;98.50;;;;;;5011821;28;20216;-69
2021/09/05 04:38:16;;;;;;;31.67;21.70;;;11.80;98.50;;;;;;5011157;28;20042;-69
2021/09/05 04:40:42;;;;;;;32.53;21.30;;;11.90;98.60;;;;;;5012441;28;20402;-68
2021/09/05 04:43:07;;;;;;;33.40;20.10;;;11.80;98.60;;;;;;5010715;28;20085;-69
2021/09/05 04:45:33;;;;;;;31.20;20.17;;;11.90;98.60;;;;;;5011354;28;20061;-69
2021/09/05 04:47:59;;;;;;;40.30;23.20;;;11.90;98.60;;;;;;5010656;28;20132;-69
2021/09/05 04:50:25;;;;;;;36.93;22.97;;;11.80;98.50;;;;;;5011293;28;20487;-69
2021/09/05 04:52:50;;;;;;;39.57;24.87;;;11.90;98.60;;;;;;5012763;28;20049;-69
2021/09/05 04:55:16;;;;;;;29.73;18.90;;;11.90;98.60;;;;;;5011641;28;20214;-68
2021/09/05 04:57:41;;;;;;;30.23;19.67;;;11.90;98.60;;;;;;5012549;28;20056;-69
2021/09/05 05:00:07;;;;;;;38.53;22.10;;;11.80;98.50;;;;;;5011094;28;20065;-68
2021/09/05 05:02:33;;;;;;;36.70;20.87;;;11.80;98.50;;;;;;5010156;28;20045;-69
2021/09/05 05:05:01;;;;;;;35.83;21.17;;;11.80;98.50;;;;;;5012501;28;20056;-68
2021/09/05 05:07:27;;;;;;;34.63;21.23;;;11.70;98.40;;;;;;5012154;28;20046;-69
2021/09/05 05:09:54;;;;;;;37.27;21.57;;;11.70;98.40;;;;;;5010337;28;20049;-69
2021/09/05 05:12:20;;;;;;;39.73;22.63;;;11.60;98.40;;;;;;5012096;28;20057;-68
2021/09/05 05:14:45;;;;;;;33.53;20.93;;;11.60;98.40;;;;;;5012301;28;20053;-68
2021/09/05 05:17:11;;;;;;;53.93;25.57;;;11.60;98.50;;;;;;5011359;28;20041;-68
2021/09/05 05:19:36;;;;;;;48.83;24.60;;;11.60;98.60;;;;;;5012340;28;20070;-68
2021/09/05 05:22:03;;;;;;;62.20;24.73;;;11.60;98.70;;;;;;5012300;28;20045;-68
2021/09/05 05:24:28;;;;;;;44.30;24.20;;;11.60;98.80;;;;;;5011080;28;20057;-68
2021/09/05 05:26:54;;;;;;;70.17;26.83;;;11.70;98.90;;;;;;5012314;28;20041;-68
2021/09/05 05:29:19;;;;;;;45.37;24.53;;;11.70;98.90;;;;;;5010913;28;20045;-68
2021/09/05 05:31:45;;;;;;;48.50;24.73;;;11.70;99.00;;;;;;5011523;28;20052;-68
2021/09/05 05:34:10;;;;;;;39.57;22.83;;;11.70;99.00;;;;;;5010590;28;20050;-69
2021/09/05 05:36:36;;;;;;;66.40;22.83;;;11.70;99.00;;;;;;5010860;28;20046;-68
2021/09/05 05:39:02;;;;;;;50.93;22.67;;;11.70;99.00;;;;;;5011519;28;20050;-67
2021/09/05 05:41:27;;;;;;;46.17;20.33;;;11.70;99.10;;;;;;5010484;28;20046;-68
2021/09/05 05:43:53;;;;;;;43.33;21.07;;;11.70;99.10;;;;;;5012151;28;20050;-68
2021/09/05 05:46:18;;;;;;;31.37;20.67;;;11.70;99.20;;;;;;5004780;28;20058;-68
2021/09/05 05:48:44;;;;;;;36.60;20.53;;;11.70;99.20;;;;;;5006344;28;20117;-68
2021/09/05 05:51:09;;;;;;;43.07;22.57;;;11.70;99.30;;;;;;4993290;28;20403;-68
2021/09/05 05:53:35;;;;;;;34.23;20.57;;;11.70;99.40;;;;;;4990883;28;20065;-68
2021/09/05 05:56:01;;;;;;;36.97;20.83;;;11.70;99.40;;;;;;4991818;28;20068;-68
2021/09/05 05:58:28;;;;;;;34.27;22.50;;;11.70;99.50;;;;;;4991113;28;20117;-68
2021/09/05 06:00:53;;;;;;;34.17;21.43;;;11.80;99.50;;;;;;4991842;28;20046;-68
2021/09/05 06:03:21;;;;;;;36.07;22.17;;;11.80;99.50;;;;;;4990703;28;20201;-68
2021/09/05 06:05:47;;;;;;;42.23;23.07;;;11.80;99.40;;;;;;4991191;28;20051;-68
2021/09/05 06:08:12;;;;;;;46.40;23.70;;;11.80;99.40;;;;;;4990466;28;20042;-68
2021/09/05 06:10:38;;;;;;;114.87;26.20;;;11.80;99.60;;;;;;4990786;28;20465;-68
2021/09/05 06:13:03;;;;;;;120.73;25.93;;;11.80;99.70;;;;;;4991845;28;20566;-68
2021/09/05 06:15:29;;;;;;;230.20;31.20;;;11.80;99.70;;;;;;4995024;28;20042;-68
2021/09/05 06:17:55;;;;;;;180.20;27.70;;;11.90;99.70;;;;;;4995636;28;20363;-68
2021/09/05 06:20:20;;;;;;;133.00;26.33;;;11.80;99.70;;;;;;4992936;28;20046;-68
2021/09/05 06:22:46;;;;;;;183.17;26.20;;;11.80;99.80;;;;;;4995452;28;20081;-68
2021/09/05 06:25:11;;;;;;;145.97;25.10;;;11.90;99.80;;;;;;4993697;28;20060;-68
2021/09/05 06:27:37;;;;;;;149.43;25.53;;;11.80;99.80;;;;;;4993668;28;20519;-68
2021/09/05 06:30:03;;;;;;;181.43;28.33;;;11.90;99.80;;;;;;4994938;28;20046;-68
2021/09/05 06:32:29;;;;;;;180.53;27.60;;;11.90;99.80;;;;;;4994057;28;20483;-68
2021/09/05 06:34:55;;;;;;;170.70;27.63;;;11.90;99.90;;;;;;4994317;28;20054;-68
2021/09/05 06:37:21;;;;;;;193.90;28.83;;;11.90;99.90;;;;;;4995051;28;20057;-68
2021/09/05 06:39:47;;;;;;;122.30;26.70;;;12.00;99.90;;;;;;4993874;28;20104;-68
2021/09/05 06:42:13;;;;;;;218.23;33.37;;;12.00;99.90;;;;;;4994085;28;20046;-68
2021/09/05 06:44:39;;;;;;;80.63;26.73;;;12.00;99.90;;;;;;4994906;28;20046;-68
2021/09/05 06:47:05;;;;;;;166.80;30.27;;;12.10;99.90;;;;;;4993724;28;20061;-68
2021/09/05 06:49:31;;;;;;;118.53;29.70;;;12.20;99.90;;;;;;4993940;28;20046;-68
2021/09/05 06:51:56;;;;;;;131.23;26.93;;;12.20;99.90;;;;;;4993710;28;20401;-67
2021/09/05 06:54:22;;;;;;;206.37;30.90;;;12.30;99.90;;;;;;4992846;28;20140;-68
2021/09/05 06:56:47;;;;;;;185.47;28.53;;;12.20;99.90;;;;;;4993414;28;20046;-68
2021/09/05 06:59:15;;;;;;;249.10;33.43;;;12.30;99.90;;;;;;4993320;28;20054;-68
2021/09/05 07:01:41;;;;;;;156.80;32.27;;;12.30;99.90;;;;;;4985866;28;20038;-66
2021/09/05 07:04:06;;;;;;;183.33;33.03;;;12.40;99.90;;;;;;4990564;28;20057;-67
2021/09/05 07:06:32;;;;;;;185.50;33.63;;;12.40;99.90;;;;;;4991689;28;20043;-66
2021/09/05 07:08:58;;;;;;;145.27;32.50;;;12.50;99.90;;;;;;4990112;28;20066;-67
2021/09/05 07:11:23;;;;;;;198.43;33.73;;;12.50;99.90;;;;;;4990745;28;20412;-68
2021/09/05 07:13:49;;;;;;;182.87;30.90;;;12.60;99.90;;;;;;4990857;28;20042;-66
2021/09/05 07:16:14;;;;;;;159.30;33.03;;;12.70;99.90;;;;;;4990499;28;20050;-65
2021/09/05 07:18:41;;;;;;;88.50;26.53;;;12.70;99.90;;;;;;4989893;28;20046;-65
2021/09/05 07:21:07;;;;;;;126.97;27.67;;;12.80;99.90;;;;;;4989180;28;20137;-66
2021/09/05 07:23:32;;;;;;;121.27;30.20;;;12.90;99.90;;;;;;4989409;28;20129;-66
2021/09/05 07:25:58;;;;;;;119.37;28.47;;;13.00;99.90;;;;;;4991294;28;20042;-66
2021/09/05 07:28:24;;;;;;;117.53;29.50;;;13.10;99.90;;;;;;4990235;28;20092;-68
2021/09/05 07:30:49;;;;;;;134.70;28.90;;;13.10;99.90;;;;;;4989977;28;20093;-68
2021/09/05 07:33:15;;;;;;;182.00;29.63;;;13.20;99.90;;;;;;4990947;28;20145;-67
2021/09/05 07:35:41;;;;;;;213.10;30.80;;;13.30;99.90;;;;;;4990104;28;20066;-69
2021/09/05 07:38:06;;;;;;;174.17;29.77;;;13.30;99.90;;;;;;4989196;28;20046;-67
2021/09/05 07:40:32;;;;;;;53.47;26.97;;;13.40;99.90;;;;;;4989186;28;20050;-68
2021/09/05 07:42:58;;;;;;;71.73;28.17;;;13.50;99.90;;;;;;4991021;28;20049;-68
2021/09/05 07:45:24;;;;;;;66.57;27.07;;;13.50;99.90;;;;;;4989330;28;20057;-67
2021/09/05 07:47:49;;;;;;;64.40;27.83;;;13.60;99.90;;;;;;4990219;28;20364;-68
2021/09/05 07:50:15;;;;;;;51.50;27.63;;;13.60;99.90;;;;;;4990416;28;20137;-67
2021/09/05 07:52:40;;;;;;;50.10;27.10;;;13.70;99.90;;;;;;4989968;28;20560;-67
2021/09/05 07:55:06;;;;;;;76.57;28.00;;;13.80;99.90;;;;;;4988955;28;20061;-67
2021/09/05 07:57:32;;;;;;;53.53;26.80;;;13.90;99.90;;;;;;4989967;28;20042;-66
2021/09/05 07:59:57;;;;;;;91.90;26.63;;;13.90;99.90;;;;;;4989846;28;20380;-67
2021/09/05 08:02:23;;;;;;;44.10;25.73;;;13.90;99.90;;;;;;4988499;28;20192;-67
2021/09/05 08:04:48;;;;;;;50.67;27.50;;;14.00;99.80;;;;;;4989072;28;20050;-67
2021/09/05 08:07:14;;;;;;;40.67;26.37;;;14.00;99.80;;;;;;4990137;28;20053;-68
2021/09/05 08:09:40;;;;;;;37.47;26.93;;;14.10;99.80;;;;;;4989896;28;20038;-68
2021/09/05 08:12:06;;;;;;;38.20;26.80;;;14.10;99.70;;;;;;4987779;28;20054;-68
2021/09/05 08:14:33;;;;;;;41.17;27.83;;;14.20;99.60;;;;;;4989693;28;20100;-67
2021/09/05 08:16:58;;;;;;;36.33;27.13;;;14.20;99.60;;;;;;4989520;28;20093;-68
2021/09/05 08:19:24;;;;;;;38.70;27.53;;;14.20;99.50;;;;;;4988852;28;20042;-64
2021/09/05 08:21:49;;;;;;;38.70;27.47;;;14.30;99.60;;;;;;4989735;28;20484;-64
2021/09/05 08:24:16;;;;;;;62.00;29.27;;;14.30;99.60;;;;;;4988221;28;20077;-65
2021/09/05 08:26:42;;;;;;;50.20;26.93;;;14.40;99.50;;;;;;4989674;28;20054;-65
2021/09/05 08:29:10;;;;;;;45.10;26.97;;;14.40;99.30;;;;;;4989146;28;20050;-68
2021/09/05 08:31:35;;;;;;;36.13;25.13;;;14.40;99.10;;;;;;4989161;28;20141;-66
2021/09/05 08:34:01;;;;;;;44.37;28.10;;;14.40;99.00;;;;;;4989081;28;20125;-66
2021/09/05 08:36:26;;;;;;;39.10;25.40;;;14.40;99.00;;;;;;4988755;28;20054;-65
2021/09/05 08:38:52;;;;;;;38.83;26.90;;;14.50;99.10;;;;;;4989442;28;20038;-66
2021/09/05 08:41:18;;;;;;;36.67;27.10;;;14.50;99.20;;;;;;4970812;28;20120;-66
2021/09/05 08:43:44;;;;;;;36.33;27.40;;;14.60;99.10;;;;;;4989493;28;20039;-65
2021/09/05 08:46:10;;;;;;;38.53;26.63;;;14.70;99.10;;;;;;4987874;28;20110;-67
2021/09/05 08:48:37;;;;;;;37.13;27.67;;;14.80;99.10;;;;;;4988227;28;20469;-67
2021/09/05 08:51:03;;;;;;;34.17;27.27;;;14.80;99.00;;;;;;4988542;28;20042;-65
2021/09/05 08:53:30;;;;;;;34.47;26.93;;;14.90;98.90;;;;;;4989099;28;20038;-65
2021/09/05 08:55:55;;;;;;;38.93;27.00;;;14.90;98.80;;;;;;4988017;28;20682;-65
2021/09/05 08:58:21;;;;;;;37.27;29.33;;;15.00;98.80;;;;;;4977456;28;20150;-65
2021/09/05 09:00:47;;;;;;;36.37;27.90;;;15.10;98.70;;;;;;4969496;28;20112;-67
2021/09/05 09:03:23;;;;;;;35.00;27.20;;;15.10;98.50;;;;;;4967232;28;20054;-67
2021/09/05 09:05:52;;;;;;;32.97;25.07;;;15.20;98.60;;;;;;4969846;28;20130;-67
2021/09/05 09:08:19;;;;;;;34.00;26.47;;;15.30;98.60;;;;;;4967367;28;20161;-67
2021/09/05 09:10:57;;;;;;;36.47;26.23;;;15.30;98.30;;;;;;4969975;28;20035;-66
2021/09/05 09:13:35;;;;;;;34.30;25.57;;;15.40;98.30;;;;;;4969157;28;20055;-66
2021/09/05 09:16:10;;;;;;;30.03;24.53;;;15.40;98.30;;;;;;4968365;28;20052;-66
2021/09/05 09:18:38;;;;;;;31.80;25.97;;;15.50;98.10;;;;;;4969270;28;20488;-66
2021/09/05 09:21:06;;;;;;;32.20;26.17;;;15.50;98.00;;;;;;4969903;28;20054;-66
2021/09/05 09:23:34;;;;;;;33.23;25.77;;;15.50;97.90;;;;;;4968894;28;20043;-66
2021/09/05 09:26:11;;;;;;;35.80;27.07;;;15.50;97.90;;;;;;4969507;28;20034;-66
2021/09/05 09:28:44;;;;;;;32.60;25.67;;;15.60;97.70;;;;;;4969315;28;20415;-66
2021/09/05 09:31:17;;;;;;;31.20;24.50;;;15.60;97.70;;;;;;4967960;28;20043;-67
2021/09/05 09:33:50;;;;;;;30.03;25.73;;;15.70;97.80;;;;;;4952542;28;20105;-67
2021/09/05 09:36:21;;;;;;;31.07;24.63;;;15.80;97.70;;;;;;4951004;28;20055;-67
2021/09/05 09:38:56;;;;;;;32.70;26.65;;;15.90;97.40;;;;;;4951770;28;20105;-66
2021/09/05 09:41:22;;;;;;;30.57;25.93;;;16.00;97.20;;;;;;4968827;28;20054;-68
2021/09/05 09:43:58;;;;;;;29.57;24.27;;;16.00;97.10;;;;;;4968401;28;20046;-70
2021/09/05 09:46:27;;;;;;;31.17;24.47;;;16.00;97.00;;;;;;4968860;28;20051;-69
2021/09/05 09:48:58;;;;;;;35.27;25.27;;;16.10;97.10;;;;;;4953744;28;20058;-71
2021/09/05 09:51:24;;;;;;;;;;;16.20;97.00;;;;;;4972879;28;20054;-67
2021/09/05 09:53:52;;;;;;;28.20;23.03;;;16.30;96.90;;;;;;4973027;28;19921;-67
2021/09/05 09:56:18;;;;;;;28.33;22.83;;;16.30;96.80;;;;;;4972283;28;20053;-69
2021/09/05 09:58:45;;;;;;;31.30;23.90;;;16.40;96.60;;;;;;4958172;28;20138;-67
2021/09/05 10:01:15;;;;;;;30.10;24.40;;;16.40;96.50;;;;;;4975812;28;20057;-67
2021/09/05 10:03:43;;;;;;;27.13;23.53;;;16.40;96.30;;;;;;4974645;28;20046;-68
2021/09/05 10:06:11;;;;;;;26.93;22.13;;;16.40;96.30;;;;;;4990972;28;20073;-68
2021/09/05 10:08:42;;;;;;;25.43;21.70;;;16.50;96.30;;;;;;4974687;28;20105;-67
2021/09/05 10:11:10;;;;;;;27.60;21.50;;;16.50;96.20;;;;;;4991717;28;20058;-68
2021/09/05 10:13:38;;;;;;;26.63;23.23;;;16.60;96.20;;;;;;4991269;28;20137;-67
2021/09/05 10:16:05;;;;;;;30.33;23.70;;;16.60;96.10;;;;;;4990985;28;20486;-69
2021/09/05 10:18:34;;;;;;;24.77;21.93;;;16.60;96.00;;;;;;4985200;28;20088;-66
2021/09/05 10:21:00;;;;;;;25.30;21.10;;;16.70;95.90;;;;;;4970075;28;20093;-66
2021/09/05 10:23:31;;;;;;;24.30;19.07;;;16.70;95.80;;;;;;4972164;28;20117;-67
2021/09/05 10:26:07;;;;;;;26.23;21.03;;;16.80;95.70;;;;;;4971121;28;20252;-67
2021/09/05 10:28:40;;;;;;;29.30;22.60;;;16.90;95.70;;;;;;4973590;28;20496;-66
2021/09/05 10:31:07;;;;;;;25.50;20.97;;;16.90;95.60;;;;;;4958660;28;20129;-66
2021/09/05 10:33:38;;;;;;;24.00;21.10;;;17.00;95.50;;;;;;4975367;28;20500;-66
2021/09/05 10:36:06;;;;;;;27.15;21.77;;;17.00;95.40;;;;;;4994273;28;20057;-66
2021/09/05 10:38:33;;;;;;;27.50;21.53;;;17.00;95.30;;;;;;4995564;28;20129;-67
2021/09/05 10:41:01;;;;;;;24.97;20.93;;;17.10;95.20;;;;;;4994632;28;20404;-66
2021/09/05 10:44:06;;;;;;;26.10;20.87;;;17.20;95.00;;;;;;4995181;28;20046;-66
2021/09/05 10:46:39;;;;;;;26.07;20.67;;;17.30;94.60;;;;;;4934437;29;20473;-66
2021/09/05 10:49:06;;;;;;;27.63;21.07;;;17.40;94.60;;;;;;4935228;29;20461;-66
2021/09/05 10:51:39;;;;;;;23.90;19.33;;;17.40;94.40;;;;;;4957601;28;20160;-67
2021/09/05 10:54:25;;;;;;;25.37;20.37;;;17.40;94.30;;;;;;4994287;28;20039;-67
2021/09/05 10:56:54;;;;;;;26.50;21.30;;;17.40;94.40;;;;;;4994731;28;20050;-67
2021/09/05 10:59:24;;;;;;;26.03;21.23;;;17.50;94.40;;;;;;4992920;28;20053;-67
2021/09/05 11:01:49;;;;;;;26.73;22.83;;;17.60;94.20;;;;;;4994345;28;20046;-66
2021/09/05 11:04:15;;;;;;;28.60;22.27;;;17.60;94.30;;;;;;4994519;28;20048;-67
2021/09/05 11:06:45;;;;;;;25.27;21.33;;;17.70;93.70;;;;;;4994939;28;20061;-67
2021/09/05 11:09:23;;;;;;;26.97;22.83;;;17.70;93.60;;;;;;4993480;28;20491;-67
2021/09/05 11:11:56;;;;;;;27.37;21.07;;;17.70;93.40;;;;;;4993644;28;20062;-67
2021/09/05 11:14:37;;;;;;;27.80;21.67;;;17.80;93.10;;;;;;4992480;28;20042;-67
2021/09/05 11:17:08;;;;;;;24.80;20.65;;;17.80;93.00;;;;;;4992850;28;20050;-67
2021/09/05 11:20:13;;;;;;;26.63;20.80;;;17.80;93.00;;;;;;4993425;28;20384;-67
2021/09/05 11:22:41;;;;;;;27.30;21.00;;;17.90;92.80;;;;;;4990023;28;20060;-67
2021/09/05 11:25:16;;;;;;;26.77;20.50;;;18.10;92.90;;;;;;4992465;28;20133;-67
2021/09/05 11:27:56;;;;;;;22.70;20.13;;;18.20;92.60;;;;;;4994154;28;20054;-66
2021/09/05 11:30:24;;;;;;;22.43;19.50;;;18.40;92.30;;;;;;4993583;28;20054;-67
2021/09/05 11:32:57;;;;;;;24.27;19.67;;;18.50;92.00;;;;;;4994468;28;20054;-67
2021/09/05 11:35:22;;;;;;;26.40;20.67;;;18.60;91.70;;;;;;4992772;28;20057;-67
2021/09/05 11:37:52;;;;;;;24.07;19.73;;;18.70;91.60;;;;;;4992576;28;20057;-66
2021/09/05 11:40:19;;;;;;;23.30;18.83;;;18.80;91.50;;;;;;4993928;28;20156;-67
2021/09/05 11:42:51;;;;;;;25.53;18.90;;;18.90;91.20;;;;;;4991961;28;20043;-67
2021/09/05 11:45:19;;;;;;;21.33;18.90;;;19.00;91.00;;;;;;4992294;28;20043;-66
2021/09/05 11:47:45;;;;;;;19.17;17.03;;;19.10;90.80;;;;;;4994184;28;20053;-66
2021/09/05 11:50:12;;;;;;;24.93;17.87;;;19.10;90.60;;;;;;4992816;28;20046;-67
2021/09/05 11:52:40;;;;;;;24.47;19.33;;;19.20;90.50;;;;;;4993495;28;20076;-66
2021/09/05 11:55:11;;;;;;;20.80;18.57;;;19.20;90.20;;;;;;4993875;28;20046;-66
2021/09/05 11:57:59;;;;;;;18.08;16.15;;;19.20;90.20;;;;;;4992102;28;20119;-66
2021/09/05 12:00:36;;;;;;;22.07;17.63;;;19.20;90.00;;;;;;4993159;28;20061;-66
2021/09/05 12:03:07;;;;;;;20.53;17.53;;;19.20;89.80;;;;;;4993971;28;20066;-67
2021/09/05 12:05:34;;;;;;;20.77;16.60;;;19.20;89.40;;;;;;4992942;28;20121;-66
2021/09/05 12:08:01;;;;;;;18.80;16.80;;;19.30;89.60;;;;;;4993408;28;20097;-66
2021/09/05 12:10:29;;;;;;;19.53;16.47;;;19.30;89.20;;;;;;4993071;28;20050;-67
2021/09/05 12:13:09;;;;;;;19.57;16.00;;;19.40;89.30;;;;;;4991263;28;20121;-67
2021/09/05 12:15:36;;;;;;;21.67;16.90;;;19.50;89.10;;;;;;4992493;28;20051;-67
2021/09/05 12:18:15;;;;;;;20.77;17.40;;;19.60;88.70;;;;;;4992471;28;20487;-68
2021/09/05 12:20:43;;;;;;;21.30;16.43;;;19.70;88.20;;;;;;4993291;28;20077;-66
2021/09/05 12:23:38;;;;;;;20.50;16.63;;;19.80;87.50;;;;;;4993145;28;20050;-67
2021/09/05 12:26:17;;;;;;;17.10;15.27;;;19.80;86.60;;;;;;4979747;28;20491;-66